Time;durP1;ratioP1;P1;durP2;ratioP2;P2;SDS_P1;SDS_P2;PMS_P1;PMS_P2;Temp;Humidity;BMP_temperature;BMP_pressure;BME280_temperature;BME280_humidity;BME280_pressure;Samples;Min_cycle;Max_cycle;Signal;HPM_P1;HPM_P2
2022/04/30 00:01:26;;;;;;;3.35;2.80;;;;;;;4.15;100.00;101475.41;7393489;19;20017;-57
2022/04/30 00:03:52;;;;;;;5.45;3.88;;;;;;;4.14;100.00;101473.81;7392491;19;20036;-57
2022/04/30 00:06:19;;;;;;;9.93;3.35;;;;;;;4.11;100.00;101479.34;7391038;19;20010;-57
2022/04/30 00:08:45;;;;;;;6.15;3.47;;;;;;;4.09;100.00;101476.19;7392010;19;20028;-57
2022/04/30 00:11:13;;;;;;;5.93;3.03;;;;;;;4.07;100.00;101479.31;7394053;19;20015;-57
2022/04/30 00:13:39;;;;;;;3.03;2.75;;;;;;;4.05;100.00;101478.91;7391949;19;20044;-57
2022/04/30 00:16:05;;;;;;;9.55;2.15;;;;;;;4.05;100.00;101470.66;7392022;19;20052;-56
2022/04/30 00:18:31;;;;;;;5.05;2.92;;;;;;;4.07;100.00;101479.31;7392361;19;20043;-57
2022/04/30 00:20:58;;;;;;;8.23;2.25;;;;;;;4.02;100.00;101470.66;7393756;19;20007;-57
2022/04/30 00:23:26;;;;;;;2.22;2.13;;;;;;;3.97;100.00;101473.78;7392176;19;20011;-57
2022/04/30 00:25:55;;;;;;;4.15;2.50;;;;;;;3.86;100.00;101479.28;7390624;19;20014;-57
2022/04/30 00:28:24;;;;;;;3.45;2.53;;;;;;;3.79;100.00;101474.53;7391541;19;20074;-57
2022/04/30 00:30:51;;;;;;;2.75;2.55;;;;;;;3.72;100.00;101473.75;7396970;19;20070;-57
2022/04/30 00:33:18;;;;;;;8.13;3.78;;;;;;;3.68;100.00;101472.94;7391248;19;20010;-57
2022/04/30 00:35:44;;;;;;;8.15;3.28;;;;;;;3.69;100.00;101469.00;7392055;19;20356;-57
2022/04/30 00:38:10;;;;;;;2.88;2.65;;;;;;;3.69;100.00;101474.50;7392401;19;20011;-57
2022/04/30 00:40:37;;;;;;;9.15;4.45;;;;;;;3.62;100.00;101475.28;7392164;19;20018;-57
2022/04/30 00:43:03;;;;;;;5.07;4.68;;;;;;;3.64;100.00;101477.63;7391904;19;20042;-57
2022/04/30 00:45:29;;;;;;;2.85;2.45;;;;;;;3.62;100.00;101466.22;7390117;19;20021;-57
2022/04/30 00:47:55;;;;;;;4.22;3.92;;;;;;;3.59;100.00;101475.28;7389722;19;20092;-57
2022/04/30 00:50:22;;;;;;;5.35;3.90;;;;;;;3.53;100.00;101460.31;7390191;19;20395;-57
2022/04/30 00:52:52;;;;;;;5.65;3.35;;;;;;;3.56;100.00;101473.28;7390319;19;20029;-57
2022/04/30 00:55:21;;;;;;;15.75;2.20;;;;;;;3.56;100.00;101465.03;7390623;19;20070;-57
2022/04/30 00:57:53;;;;;;;6.70;2.67;;;;;;;3.51;100.00;101459.91;7391032;19;20466;-57
2022/04/30 01:00:19;;;;;;;;;;;;;;;3.48;100.00;101457.94;7394834;19;20351;-57
2022/04/30 01:03:04;;;;;;;4.63;2.65;;;;;;;3.48;100.00;101463.44;7391394;19;19914;-57
2022/04/30 01:05:49;;;;;;;4.95;3.50;;;;;;;3.46;100.00;101463.03;7389442;19;20010;-57
2022/04/30 01:08:16;;;;;;;6.65;2.78;;;;;;;3.48;100.00;101452.41;7390068;19;20051;-57
2022/04/30 01:10:42;;;;;;;8.27;3.17;;;;;;;3.48;100.00;101446.91;7390525;19;20010;-57
2022/04/30 01:13:09;;;;;;;1.92;1.83;;;;;;;3.48;100.00;101452.41;7388983;19;20021;-57
2022/04/30 01:15:35;;;;;;;6.00;2.20;;;;;;;3.42;100.00;101446.47;7389788;19;20538;-57
2022/04/30 01:18:02;;;;;;;4.70;2.45;;;;;;;3.32;100.00;101443.69;7390673;19;20014;-57
2022/04/30 01:20:31;;;;;;;6.43;2.90;;;;;;;3.25;100.00;101449.19;7388461;19;20015;-57
2022/04/30 01:23:01;;;;;;;6.68;2.92;;;;;;;3.26;100.00;101440.53;7389835;19;20013;-57
2022/04/30 01:25:32;;;;;;;15.95;4.32;;;;;;;3.21;100.00;101440.91;7389397;19;20086;-57
2022/04/30 01:27:59;;;;;;;3.08;2.15;;;;;;;3.18;100.00;101441.69;7387959;19;20474;-57
2022/04/30 01:30:26;;;;;;;2.38;1.73;;;;;;;3.15;100.00;101439.69;7393207;19;20006;-57
2022/04/30 01:38:22;;;;;;;21.15;3.22;;;;;;;3.04;100.00;101434.16;7388690;19;20014;-57
2022/04/30 01:40:48;;;;;;;8.75;2.65;;;;;;;2.99;100.00;101429.00;7388915;19;19998;-57
2022/04/30 01:43:16;;;;;;;5.45;3.47;;;;;;;2.94;100.00;101434.09;7388580;19;20338;-57
2022/04/30 01:45:44;;;;;;;4.40;2.95;;;;;;;2.89;100.00;101432.50;7386681;19;20021;-57
2022/04/30 01:48:14;;;;;;;5.40;3.00;;;;;;;2.84;100.00;101427.34;7388939;19;20014;-57
2022/04/30 01:59:30;;;;;;;5.05;2.47;;;;;;;2.75;100.00;101426.13;7389140;19;20013;-55
2022/04/30 02:01:59;;;;;;;15.85;4.25;;;;;;;2.75;100.00;101426.91;7388402;19;20481;-54
2022/04/30 02:04:27;;;;;;;3.40;2.05;;;;;;;2.78;100.00;101428.91;7385607;19;20013;-55
2022/04/30 02:06:55;;;;;;;2.42;2.05;;;;;;;2.79;100.00;101433.25;7388647;19;20366;-54
2022/04/30 02:09:22;;;;;;;12.82;3.42;;;;;;;2.77;100.00;101427.31;7389325;19;20029;-54
2022/04/30 02:11:48;;;;;;;8.10;3.40;;;;;;;2.76;100.00;101435.94;7392368;19;20022;-54
2022/04/30 02:14:15;;;;;;;8.40;3.63;;;;;;;2.71;100.00;101426.09;7389187;19;20034;-54
2022/04/30 02:16:43;;;;;;;6.57;4.57;;;;;;;2.70;100.00;101423.75;7389286;19;20010;-55
2022/04/30 02:19:10;;;;;;;8.73;3.20;;;;;;;2.69;100.00;101427.66;7388113;19;20018;-54
2022/04/30 02:21:37;;;;;;;2.55;2.22;;;;;;;2.62;100.00;101428.41;7391547;19;20015;-54
2022/04/30 02:24:04;;;;;;;11.18;2.47;;;;;;;2.61;100.00;101421.34;7389657;19;20400;-55
2022/04/30 02:26:30;;;;;;;5.95;2.33;;;;;;;2.61;100.00;101431.53;7393119;19;20474;-54
2022/04/30 02:28:57;;;;;;;8.52;3.45;;;;;;;2.48;100.00;101422.81;7396019;19;20023;-54
2022/04/30 02:31:27;;;;;;;4.90;2.00;;;;;;;2.44;100.00;101422.00;7397907;19;20014;-56
2022/04/30 02:33:57;;;;;;;6.95;3.13;;;;;;;2.39;100.00;101419.59;7395402;19;20454;-55
2022/04/30 02:36:27;;;;;;;4.90;2.63;;;;;;;2.36;100.00;101414.84;7396479;19;20007;-55
2022/04/30 02:38:55;;;;;;;6.53;2.85;;;;;;;2.36;100.00;101419.59;7396861;19;20037;-55
2022/04/30 02:41:22;;;;;;;14.70;2.97;;;;;;;2.33;100.00;101414.84;7398896;19;20717;-54
2022/04/30 02:43:52;;;;;;;8.48;3.55;;;;;;;2.33;100.00;101415.63;7394349;19;20010;-55
2022/04/30 02:46:23;;;;;;;6.13;2.40;;;;;;;2.29;100.00;101414.81;7395228;19;20048;-55
2022/04/30 02:48:49;;;;;;;3.75;3.45;;;;;;;2.26;100.00;101410.09;7397500;19;20090;-54
2022/04/30 02:51:15;;;;;;;4.72;3.75;;;;;;;2.26;100.00;101415.56;7400043;19;20042;-55
2022/04/30 02:53:43;;;;;;;3.55;2.88;;;;;;;2.26;100.00;101410.88;7399281;19;20066;-54
2022/04/30 02:56:12;;;;;;;2.97;2.85;;;;;;;2.27;100.00;101411.69;7396072;19;20373;-55
2022/04/30 03:01:23;;;;;;;3.72;2.70;;;;;;;2.23;100.00;101421.84;7395477;19;20018;-54
2022/04/30 03:04:06;;;;;;;4.03;3.55;;;;;;;2.22;100.00;101420.25;7393912;19;20010;-55
2022/04/30 03:06:35;;;;;;;4.88;3.15;;;;;;;2.23;100.00;101422.63;7392267;19;20029;-54
2022/04/30 03:09:03;;;;;;;2.50;2.30;;;;;;;2.24;100.00;101417.91;7394222;19;20038;-55
2022/04/30 03:11:31;;;;;;;5.60;3.78;;;;;;;2.17;100.00;101407.66;7397207;19;20109;-53
2022/04/30 03:13:57;;;;;;;3.42;3.17;;;;;;;2.23;100.00;101411.63;7394644;19;20026;-53
2022/04/30 03:21:53;;;;;;;8.88;3.22;;;;;;;2.13;100.00;101406.06;7396387;19;20006;-54
2022/04/30 03:24:19;;;;;;;19.00;3.30;;;;;;;2.12;100.00;101396.25;7392864;19;20014;-55
2022/04/30 03:26:47;;;;;;;9.48;3.22;;;;;;;2.11;100.00;101408.41;7389860;19;20363;-55
2022/04/30 03:29:18;;;;;;;2.20;2.00;;;;;;;2.06;100.00;101403.25;7393697;19;20014;-54
2022/04/30 03:31:44;;;;;;;16.00;3.33;;;;;;;1.97;100.00;101392.56;7395935;19;20195;-53
2022/04/30 03:34:15;;;;;;;2.58;2.20;;;;;;;1.94;100.00;101392.56;7393240;19;20014;-53
2022/04/30 03:36:43;;;;;;;3.93;1.90;;;;;;;1.93;100.00;101385.47;7390930;19;20010;-55
2022/04/30 03:39:09;;;;;;;1.83;1.77;;;;;;;1.94;100.00;101381.56;7393682;19;20348;-55
2022/04/30 03:41:36;;;;;;;3.70;1.95;;;;;;;1.93;100.00;101369.78;7394758;19;20079;-53
2022/04/30 03:44:03;;;;;;;7.82;3.63;;;;;;;1.95;100.00;101377.66;7393172;19;20015;-53
2022/04/30 03:46:29;;;;;;;2.45;1.55;;;;;;;1.88;100.00;101366.59;7392075;19;20107;-55
2022/04/30 03:48:56;;;;;;;2.47;2.38;;;;;;;1.87;100.00;101376.00;7394381;19;20046;-55
2022/04/30 04:00:30;;;;;;;3.40;3.10;;;;;;;1.81;100.00;101358.31;7392664;19;20340;-57
2022/04/30 04:02:59;;;;;;;3.97;2.63;;;;;;;1.80;100.00;101354.00;7390372;19;20117;-57
2022/04/30 04:05:26;;;;;;;2.20;2.08;;;;;;;1.75;100.00;101357.88;7390635;19;20014;-57
2022/04/30 04:07:52;;;;;;;6.13;2.80;;;;;;;1.75;100.00;101357.06;7393171;19;20019;-57
2022/04/30 04:10:18;;;;;;;3.83;1.88;;;;;;;1.77;100.00;101360.22;7390443;19;20010;-57
2022/04/30 04:12:44;;;;;;;2.38;2.28;;;;;;;1.70;100.00;101360.97;7393133;19;20020;-57
2022/04/30 04:17:55;;;;;;;2.05;1.95;;;;;;;1.54;100.00;101355.72;7393345;19;20019;-57
2022/04/30 04:20:24;;;;;;;2.55;2.35;;;;;;;1.51;100.00;101359.22;7392547;19;20010;-57
2022/04/30 04:22:52;;;;;;;12.65;4.63;;;;;;;1.49;100.00;101347.81;7392154;19;20015;-57
2022/04/30 04:28:04;;;;;;;17.65;3.08;;;;;;;1.62;100.00;101347.53;7391831;19;20022;-57
2022/04/30 04:30:31;;;;;;;5.28;2.70;;;;;;;1.63;100.00;101349.09;7395896;19;20010;-57
2022/04/30 04:32:58;;;;;;;15.50;3.50;;;;;;;1.54;100.00;101347.47;7392535;19;20022;-57
2022/04/30 04:35:25;;;;;;;4.13;2.92;;;;;;;1.46;100.00;101350.53;7392650;19;20018;-57
2022/04/30 04:37:51;;;;;;;2.70;2.55;;;;;;;1.44;100.00;101353.66;7390232;19;20031;-57
2022/04/30 04:40:18;;;;;;;3.10;2.45;;;;;;;1.52;100.00;101360.00;7390245;19;20503;-57
2022/04/30 04:42:48;;;;;;;5.82;2.63;;;;;;;1.50;100.00;101354.09;7391765;19;20011;-57
2022/04/30 04:45:15;;;;;;;4.55;3.53;;;;;;;1.54;100.00;101350.22;7389307;19;20014;-57
2022/04/30 04:47:44;;;;;;;2.88;2.50;;;;;;;1.60;100.00;101350.69;7391043;19;20022;-57
2022/04/30 04:50:12;;;;;;;2.67;2.53;;;;;;;1.67;100.00;101355.44;7390771;19;20393;-57
2022/04/30 04:52:40;;;;;;;5.63;3.30;;;;;;;1.82;100.00;101362.63;7391160;19;20314;-55
2022/04/30 04:55:07;;;;;;;7.07;2.35;;;;;;;1.85;100.00;101361.88;7393646;19;20021;-54
2022/04/30 04:57:33;;;;;;;22.05;2.67;;;;;;;1.92;100.00;101359.97;7389669;19;20019;-53
2022/04/30 04:59:59;;;;;;;2.55;2.35;;;;;;;2.13;100.00;101362.88;7393578;19;20104;-54
2022/04/30 05:02:25;;;;;;;1.95;1.85;;;;;;;2.27;100.00;101357.47;7393584;19;20109;-54
2022/04/30 05:04:52;;;;;;;9.38;3.80;;;;;;;2.29;100.00;101357.09;7387868;19;20495;-53
2022/04/30 05:07:18;;;;;;;8.07;2.90;;;;;;;2.28;100.00;101353.56;7389414;19;20018;-55
2022/04/30 05:09:44;;;;;;;3.50;2.35;;;;;;;2.32;100.00;101352.81;7391435;19;20044;-53
2022/04/30 05:12:11;;;;;;;11.25;3.10;;;;;;;2.34;100.00;101351.22;7395559;19;20357;-55
2022/04/30 05:14:37;;;;;;;6.38;3.00;;;;;;;2.32;100.00;101358.31;7391023;19;20010;-53
2022/04/30 05:17:05;;;;;;;7.30;3.97;;;;;;;2.31;100.00;101346.53;7390024;19;20015;-55
2022/04/30 05:19:32;;;;;;;2.92;2.25;;;;;;;2.36;100.00;101348.88;7390535;19;20463;-53
2022/04/30 05:21:58;;;;;;;4.00;3.58;;;;;;;2.37;100.00;101349.69;7394666;19;20014;-55
2022/04/30 05:24:24;;;;;;;10.73;2.75;;;;;;;2.34;100.00;101351.22;7391500;19;20063;-53
2022/04/30 05:26:50;;;;;;;2.22;1.95;;;;;;;2.41;100.00;101348.53;7389270;19;20014;-55
2022/04/30 05:29:17;;;;;;;4.50;4.00;;;;;;;2.48;100.00;101354.09;7391778;19;20051;-53
2022/04/30 05:31:43;;;;;;;7.32;2.63;;;;;;;2.51;100.00;101355.28;7393900;19;20451;-55
2022/04/30 05:34:10;;;;;;;3.17;2.38;;;;;;;2.58;100.00;101352.56;7389918;19;20017;-54
2022/04/30 05:36:38;;;;;;;3.75;3.10;;;;;;;2.66;100.00;101357.72;7390724;19;20007;-55
2022/04/30 05:39:05;;;;;;;2.47;2.28;;;;;;;2.64;100.00;101360.03;7390748;19;20021;-53
2022/04/30 05:41:31;;;;;;;8.23;2.88;;;;;;;2.64;100.00;101362.78;7392608;19;20010;-55
2022/04/30 05:43:57;;;;;;;7.05;2.78;;;;;;;2.74;100.00;101353.84;7388372;19;20467;-53
2022/04/30 05:46:23;;;;;;;3.13;2.80;;;;;;;2.83;100.00;101354.28;7390272;19;20015;-53
2022/04/30 05:48:50;;;;;;;1.50;1.45;;;;;;;2.81;100.00;101358.56;7393592;19;20006;-53
2022/04/30 05:51:16;;;;;;;4.85;3.03;;;;;;;2.92;100.00;101365.69;7391652;19;20011;-56
2022/04/30 05:53:45;;;;;;;6.70;2.63;;;;;;;2.98;100.00;101357.84;7391713;19;20007;-57
2022/04/30 05:56:11;;;;;;;6.05;2.58;;;;;;;2.95;100.00;101353.13;7391030;19;20010;-57
2022/04/30 05:58:38;;;;;;;14.52;3.80;;;;;;;3.03;100.00;101355.50;7387671;19;20040;-56
2022/04/30 06:01:05;;;;;;;2.05;1.98;;;;;;;3.08;100.00;101355.13;7391165;19;20014;-56
2022/04/30 06:03:33;;;;;;;20.75;4.38;;;;;;;3.13;100.00;101364.19;7387839;19;20074;-56
2022/04/30 06:05:59;;;;;;;11.30;2.38;;;;;;;3.28;100.00;101358.34;7387273;19;20011;-56
2022/04/30 06:08:26;;;;;;;4.57;3.15;;;;;;;3.51;100.00;101361.53;7389320;19;20014;-56
2022/04/30 06:10:52;;;;;;;4.50;2.42;;;;;;;3.63;100.00;101360.38;7389281;19;20010;-56
2022/04/30 06:13:18;;;;;;;3.20;1.98;;;;;;;3.67;100.00;101367.47;7388458;19;20038;-56
2022/04/30 06:15:44;;;;;;;4.30;2.58;;;;;;;3.75;100.00;101371.00;7388767;19;20502;-57
2022/04/30 06:18:10;;;;;;;2.78;2.47;;;;;;;3.78;100.00;101367.50;7388549;19;20019;-57
2022/04/30 06:20:37;;;;;;;7.07;3.65;;;;;;;3.96;100.00;101373.81;7388378;19;20357;-56
2022/04/30 06:23:03;;;;;;;3.90;3.60;;;;;;;4.13;100.00;101364.75;7388136;19;20016;-56
2022/04/30 06:25:29;;;;;;;5.53;2.72;;;;;;;4.23;100.00;101366.69;7387294;19;20022;-56
2022/04/30 06:27:55;;;;;;;4.15;2.28;;;;;;;4.30;100.00;101372.19;7387518;19;20014;-56
2022/04/30 06:30:21;;;;;;;2.92;2.75;;;;;;;4.43;100.00;101365.09;7390348;19;20010;-56
2022/04/30 06:32:48;;;;;;;2.92;2.72;;;;;;;4.57;100.00;101365.03;7387907;19;20367;-56
2022/04/30 06:35:14;;;;;;;8.85;4.47;;;;;;;4.65;100.00;101360.31;7387953;19;20074;-56
2022/04/30 06:37:40;;;;;;;9.25;3.15;;;;;;;4.82;100.00;101358.69;7387566;19;20501;-56
2022/04/30 06:40:07;;;;;;;9.73;2.22;;;;;;;5.00;100.00;101364.91;7387897;19;20014;-56
2022/04/30 06:42:46;;;;;;;7.75;3.42;;;;;;;5.10;100.00;101364.09;7391949;19;20011;-56
2022/04/30 06:45:13;;;;;;;7.72;4.32;;;;;;;5.28;100.00;101360.03;7386568;19;20363;-56
2022/04/30 06:47:40;;;;;;;12.95;6.10;;;;;;;5.48;100.00;101367.84;7386931;19;20123;-56
2022/04/30 06:50:07;;;;;;;12.25;4.20;;;;;;;5.64;100.00;101381.94;7388271;19;20034;-56
2022/04/30 06:58:10;;;;;;;7.28;2.53;;;;;;;6.16;100.00;101363.38;7387501;19;20109;-53
2022/04/30 07:03:26;;;;;;;9.63;4.40;;;;;;;6.51;100.00;101363.84;7385499;19;20022;-54
2022/04/30 07:06:03;;;;;;;13.05;2.60;;;;;;;6.71;100.00;101361.28;7385424;19;20011;-54
2022/04/30 07:08:31;;;;;;;6.93;2.70;;;;;;;6.93;100.00;101364.56;7386567;19;20014;-55
2022/04/30 07:10:59;;;;;;;4.20;2.20;;;;;;;7.10;100.00;101364.38;7393334;19;20086;-54
2022/04/30 07:13:25;;;;;;;4.20;2.92;;;;;;;7.30;100.00;101365.25;7394228;19;20014;-54
2022/04/30 07:15:51;;;;;;;9.50;2.45;;;;;;;7.47;100.00;101363.47;7394507;19;20499;-54
2022/04/30 07:18:18;;;;;;;7.25;3.47;;;;;;;7.57;100.00;101368.84;7394896;19;20462;-54
2022/04/30 07:20:44;;;;;;;10.32;3.25;;;;;;;7.77;100.00;101357.06;7395257;19;20345;-54
2022/04/30 07:23:10;;;;;;;7.95;4.57;;;;;;;7.97;100.00;101363.50;7394882;19;20017;-55
2022/04/30 07:25:36;;;;;;;3.40;2.28;;;;;;;8.26;100.00;101364.59;7392195;19;20367;-54
2022/04/30 07:28:03;;;;;;;2.67;2.08;;;;;;;8.48;100.00;101363.03;7393799;19;20048;-56
2022/04/30 07:30:29;;;;;;;3.10;2.58;;;;;;;8.67;100.00;101355.91;7398238;19;20014;-56
2022/04/30 07:32:55;;;;;;;6.80;2.17;;;;;;;8.85;100.00;101356.38;7394248;19;20006;-56
2022/04/30 07:35:21;;;;;;;6.68;2.38;;;;;;;9.04;100.00;101356.38;7393886;19;20676;-55
2022/04/30 07:37:47;;;;;;;2.95;2.00;;;;;;;9.29;100.00;101346.72;7393446;19;20010;-56
2022/04/30 07:40:13;;;;;;;5.88;2.47;;;;;;;9.42;100.00;101355.97;7393674;19;20017;-55
2022/04/30 07:42:40;;;;;;;3.67;2.58;;;;;;;9.65;100.00;101348.28;7398570;19;20048;-55
2022/04/30 07:45:06;;;;;;;13.25;3.40;;;;;;;9.74;100.00;101345.69;7391821;19;20023;-54
2022/04/30 07:47:33;;;;;;;14.88;2.88;;;;;;;9.88;100.00;101350.09;7393904;19;20070;-56
2022/04/30 07:49:59;;;;;;;4.13;2.55;;;;;;;9.98;100.00;101339.94;7396728;19;20090;-55
2022/04/30 07:58:26;;;;;;;4.85;1.60;;;;;;;10.33;100.00;101345.41;7394187;19;20006;-93
2022/04/30 08:00:52;;;;;;;8.27;2.28;;;;;;;10.54;100.00;101342.06;7399294;19;20071;-93
2022/04/30 08:03:20;;;;;;;3.72;2.08;;;;;;;10.59;100.00;101344.28;7399433;19;20041;-94
2022/04/30 08:05:46;;;;;;;8.98;3.47;;;;;;;10.87;100.00;101341.97;7402066;19;20338;-95
2022/04/30 08:08:12;;;;;;;4.20;1.20;;;;;;;11.04;100.00;101338.66;7412113;19;20010;-94
2022/04/30 08:10:39;;;;;;;4.13;1.85;;;;;;;11.21;100.00;101342.94;7414551;19;20018;-94
2022/04/30 08:13:06;;;;;;;6.20;1.63;;;;;;;11.20;100.00;101340.56;7408388;19;20476;-94
2022/04/30 08:15:33;;;;;;;6.25;2.05;;;;;;;11.32;100.00;101334.25;7399263;19;20010;-92
2022/04/30 08:17:59;;;;;;;10.10;3.25;;;;;;;11.43;100.00;101335.47;7399707;19;20017;-91
2022/04/30 08:20:25;;;;;;;6.47;2.67;;;;;;;11.56;100.00;101332.69;7399253;19;20094;-91
2022/04/30 08:22:51;;;;;;;6.47;2.33;;;;;;;11.67;100.00;101327.59;7394926;19;20018;-92
2022/04/30 08:25:18;;;;;;;6.53;2.40;;;;;;;11.86;100.00;101328.56;7399177;19;20022;-90
2022/04/30 08:27:45;;;;;;;6.05;1.60;;;;;;;11.97;100.00;101326.22;7399052;19;20041;-91
2022/04/30 08:30:11;;;;;;;4.70;1.88;;;;;;;12.13;100.00;101321.25;7399620;19;20337;-91
2022/04/30 08:32:38;;;;;;;9.30;2.40;;;;;;;12.21;100.00;101312.63;7399604;19;20018;-91
2022/04/30 08:35:04;;;;;;;8.05;2.03;;;;;;;12.24;100.00;101306.91;7401202;19;20031;-92
2022/04/30 08:37:31;;;;;;;6.03;1.80;;;;;;;12.27;100.00;101308.03;7397676;19;20010;-90
2022/04/30 08:39:57;;;;;;;4.32;3.08;;;;;;;12.41;100.00;101299.16;7397907;19;20010;-91
2022/04/30 08:42:23;;;;;;;4.45;1.98;;;;;;;12.57;100.00;101298.97;7399590;19;20697;-92
2022/04/30 08:44:50;;;;;;;4.50;1.95;;;;;;;12.86;100.00;101297.47;7403303;19;20041;-90
2022/04/30 08:47:16;;;;;;;6.03;2.05;;;;;;;13.15;100.00;101300.00;7406459;19;20010;-93
2022/04/30 08:49:42;;;;;;;4.53;2.55;;;;;;;13.30;100.00;101289.81;7400974;19;20007;-93
2022/04/30 08:52:15;;;;;;;8.38;2.85;;;;;;;13.54;100.00;101288.06;7400505;19;20007;-93
2022/04/30 08:54:42;;;;;;;6.32;1.58;;;;;;;13.72;100.00;101294.97;7395720;19;20418;-85
2022/04/30 08:57:08;;;;;;;5.70;2.30;;;;;;;13.89;100.00;101290.63;7391829;19;20031;-87
2022/04/30 08:59:35;;;;;;;6.07;2.05;;;;;;;14.03;100.00;101285.25;7396687;19;20026;-93
2022/04/30 09:02:07;;;;;;;5.63;1.90;;;;;;;14.07;100.00;101288.66;7396982;19;20341;-85
2022/04/30 09:04:48;;;;;;;7.50;2.25;;;;;;;14.20;100.00;101288.53;7394026;19;20030;-85
2022/04/30 09:07:20;;;;;;;6.13;2.28;;;;;;;14.51;100.00;101280.75;7394238;19;20043;-86
2022/04/30 09:09:58;;;;;;;4.88;2.08;;;;;;;14.70;100.00;101275.94;7392094;19;20014;-84
2022/04/30 09:12:26;;;;;;;4.97;1.35;;;;;;;14.72;100.00;101274.22;7392669;19;20022;-87
2022/04/30 09:14:52;;;;;;;3.97;2.03;;;;;;;14.78;100.00;101275.13;7394616;19;20022;-87
2022/04/30 09:17:22;;;;;;;4.78;1.52;;;;;;;14.97;100.00;101271.03;7400615;19;20110;-87
2022/04/30 09:19:53;;;;;;;1.23;0.90;;;;;;;15.11;100.00;101270.38;7397766;19;20085;-86
2022/04/30 09:22:31;;;;;;;2.15;1.13;;;;;;;15.22;100.00;101269.09;7395597;19;20394;-86
2022/04/30 09:24:59;;;;;;;3.80;1.20;;;;;;;15.34;100.00;101273.72;7394915;19;20499;-88
2022/04/30 09:27:25;;;;;;;2.60;1.40;;;;;;;15.53;100.00;101272.41;7395883;19;20352;-89
2022/04/30 09:29:52;;;;;;;1.33;0.55;;;;;;;15.58;100.00;101272.53;7396224;19;20007;-87
2022/04/30 09:32:20;;;;;;;6.53;1.85;;;;;;;15.80;100.00;101272.28;7396409;19;20014;-88
2022/04/30 09:37:42;;;;;;;3.17;0.73;;;;;;;16.07;100.00;101268.50;7396449;19;20364;-96
2022/04/30 09:40:15;;;;;;;2.92;1.02;;;;;;;16.19;100.00;101264.66;7396560;19;20010;-94
2022/04/30 09:42:42;;;;;;;1.60;0.60;;;;;;;16.39;100.00;101268.41;7399574;19;20800;-93
2022/04/30 09:45:20;;;;;;;2.90;0.93;;;;;;;16.47;100.00;101260.38;7398227;19;20342;-93
2022/04/30 09:47:47;;;;;;;1.45;0.45;;;;;;;16.53;100.00;101255.66;7398170;19;20022;-94
2022/04/30 09:55:52;;;;;;;1.63;0.95;;;;;;;16.74;100.00;101248.13;7387662;19;20377;-56
2022/04/30 09:58:23;;;;;;;0.55;0.50;;;;;;;16.81;100.00;101233.66;7388359;19;20007;-56
2022/04/30 10:00:54;;;;;;;1.77;0.65;;;;;;;16.89;99.66;101243.28;7391278;19;20007;-56
2022/04/30 10:03:25;;;;;;;6.45;2.30;;;;;;;17.18;100.00;101238.38;7387014;19;20487;-56
2022/04/30 10:05:58;;;;;;;2.78;0.98;;;;;;;17.22;99.65;101235.34;7387366;19;20074;-55
2022/04/30 10:08:24;;;;;;;1.42;0.75;;;;;;;17.27;97.85;101234.69;7388799;19;20470;-55
2022/04/30 10:10:57;;;;;;;3.47;0.68;;;;;;;17.47;95.24;101237.56;7389482;19;20010;-55
2022/04/30 10:14:01;;;;;;;3.75;1.35;;;;;;;17.52;92.70;101233.31;7389126;19;20046;-56
2022/04/30 10:16:29;;;;;;;1.75;0.43;;;;;;;17.62;93.56;101221.41;7388998;19;20081;-56
2022/04/30 10:19:15;;;;;;;2.42;1.23;;;;;;;17.71;92.97;101223.31;7386995;19;20030;-55
2022/04/30 10:21:42;;;;;;;2.63;0.40;;;;;;;17.78;91.69;101220.84;7390185;19;20006;-55
2022/04/30 10:24:12;;;;;;;2.72;0.90;;;;;;;17.76;91.88;101217.00;7387365;19;20014;-56
2022/04/30 10:26:57;;;;;;;1.05;0.55;;;;;;;17.85;89.14;101208.38;7386379;19;20022;-56
2022/04/30 10:29:23;;;;;;;0.43;0.38;;;;;;;17.88;87.95;101198.94;7390018;19;20066;-56
2022/04/30 10:31:49;;;;;;;1.20;0.20;;;;;;;17.80;87.30;101209.09;7388183;19;20328;-56
2022/04/30 10:34:16;;;;;;;3.58;0.98;;;;;;;17.85;88.15;101209.16;7387849;19;20019;-56
2022/04/30 10:36:42;;;;;;;1.45;1.08;;;;;;;17.76;88.27;101203.66;7386535;19;20011;-56
2022/04/30 10:39:18;;;;;;;2.53;0.90;;;;;;;17.76;89.21;101202.91;7388807;19;20018;-56
2022/04/30 10:41:48;;;;;;;0.90;0.35;;;;;;;17.74;86.80;101200.56;7390901;19;20484;-56
2022/04/30 10:44:15;;;;;;;0.30;0.20;;;;;;;17.81;87.56;101194.50;7388470;19;20018;-56
2022/04/30 10:46:48;;;;;;;0.98;0.40;;;;;;;17.95;87.61;101195.72;7392145;19;20335;-56
2022/04/30 10:49:14;;;;;;;4.28;0.93;;;;;;;18.09;87.79;101197.66;7394353;19;20010;-56
2022/04/30 10:51:42;;;;;;;2.95;0.65;;;;;;;18.15;86.87;101201.31;7397461;19;20045;-56
2022/04/30 10:54:10;;;;;;;1.98;0.80;;;;;;;18.09;84.63;101192.03;7394763;19;20064;-56
2022/04/30 10:56:39;;;;;;;1.80;0.73;;;;;;;17.94;83.24;101186.47;7393778;19;20006;-56
2022/04/30 10:59:06;;;;;;;4.05;1.38;;;;;;;17.93;83.75;101187.72;7395155;19;20082;-56
2022/04/30 11:01:33;;;;;;;1.40;0.70;;;;;;;17.98;83.80;101178.56;7397175;19;20350;-56
2022/04/30 11:04:01;;;;;;;0.82;0.57;;;;;;;18.10;85.44;101177.41;7394548;19;20018;-56
2022/04/30 11:06:32;;;;;;;3.15;0.60;;;;;;;18.19;85.46;101177.25;7392158;19;20078;-56
2022/04/30 11:08:59;;;;;;;1.88;1.00;;;;;;;18.38;85.62;101174.13;7394162;19;20007;-56
2022/04/30 11:11:25;;;;;;;4.13;0.60;;;;;;;18.28;84.54;101153.78;7396046;19;20458;-56
2022/04/30 11:14:11;;;;;;;3.20;1.25;;;;;;;18.39;84.94;101158.75;7394337;19;20010;-56
2022/04/30 11:16:40;;;;;;;2.60;0.85;;;;;;;18.51;84.61;101155.59;7393566;19;20333;-56
2022/04/30 11:19:10;;;;;;;4.43;1.17;;;;;;;18.47;81.96;101148.63;7393743;19;20458;-56
2022/04/30 11:21:38;;;;;;;1.08;0.52;;;;;;;18.42;83.97;101146.47;7395646;19;20074;-56
2022/04/30 11:24:06;;;;;;;2.28;0.63;;;;;;;18.48;82.04;101141.69;7393545;19;20022;-56
2022/04/30 11:26:43;;;;;;;2.67;0.80;;;;;;;18.50;83.80;101141.94;7391254;19;20451;-56
2022/04/30 11:29:13;;;;;;;5.15;1.38;;;;;;;18.48;82.25;101133.22;7394470;19;20013;-56
2022/04/30 11:31:42;;;;;;;2.15;0.60;;;;;;;18.58;82.67;101129.72;7395820;19;20466;-56
2022/04/30 11:34:12;;;;;;;1.60;0.32;;;;;;;18.64;78.28;101124.13;7393983;19;20018;-56
2022/04/30 11:36:47;;;;;;;5.25;1.10;;;;;;;18.77;80.57;101108.34;7392938;19;20554;-56
2022/04/30 11:39:15;;;;;;;2.28;0.63;;;;;;;18.97;81.49;101113.09;7392407;19;20025;-56
2022/04/30 11:41:46;;;;;;;5.63;1.67;;;;;;;19.07;80.75;101111.63;7395115;19;20010;-56
2022/04/30 11:44:14;;;;;;;2.72;1.15;;;;;;;19.28;76.94;101104.53;7392643;19;20018;-56
2022/04/30 11:46:42;;;;;;;1.23;0.52;;;;;;;19.10;76.28;101099.28;7390146;19;20466;-56
2022/04/30 11:49:13;;;;;;;3.90;1.13;;;;;;;19.07;76.09;101093.88;7393221;19;20010;-56
2022/04/30 11:51:41;;;;;;;3.05;0.95;;;;;;;19.22;78.11;101091.66;7395697;19;20022;-56
2022/04/30 11:54:09;;;;;;;2.92;0.65;;;;;;;19.27;74.22;101086.06;7394235;19;20010;-56
2022/04/30 11:56:37;;;;;;;1.85;0.30;;;;;;;19.12;74.20;101085.47;7389884;19;20356;-56
2022/04/30 11:59:04;;;;;;;1.80;1.00;;;;;;;19.26;76.84;101084.50;7395217;19;20018;-56
2022/04/30 12:01:32;;;;;;;2.63;1.20;;;;;;;19.34;75.55;101084.81;7396160;19;20486;-56
2022/04/30 12:04:05;;;;;;;1.85;0.38;;;;;;;19.32;75.46;101082.47;7393304;19;20012;-56
2022/04/30 12:06:32;;;;;;;2.45;0.65;;;;;;;19.09;71.11;101075.16;7389917;19;20010;-56
2022/04/30 12:08:59;;;;;;;1.90;0.93;;;;;;;18.85;71.64;101071.94;7391823;19;20477;-56
2022/04/30 12:11:26;;;;;;;1.45;0.38;;;;;;;18.93;72.55;101070.97;7393227;19;20467;-56
2022/04/30 12:14:03;;;;;;;6.32;0.55;;;;;;;19.29;73.38;101072.19;7393410;19;20095;-56
2022/04/30 12:16:34;;;;;;;1.80;0.95;;;;;;;19.58;73.65;101071.81;7391575;19;20011;-56
2022/04/30 12:24:46;;;;;;;1.95;0.40;;;;;;;19.54;70.81;101059.22;7392711;19;20018;-56
2022/04/30 12:27:20;;;;;;;1.80;0.70;;;;;;;19.76;68.49;101047.97;7390002;19;20840;-56
2022/04/30 12:29:47;;;;;;;3.22;0.85;;;;;;;19.85;66.01;101049.78;7393634;19;20037;-56
2022/04/30 12:32:17;;;;;;;2.08;0.38;;;;;;;20.06;66.90;101042.63;7392845;19;20021;-56
2022/04/30 12:34:44;;;;;;;1.10;0.75;;;;;;;20.33;67.16;101039.06;7391691;19;20068;-56